Time;durP1;ratioP1;P1;durP2;ratioP2;P2;SDS_P1;SDS_P2;PMS_P1;PMS_P2;Temp;Humidity;BMP_temperature;BMP_pressure;BME280_temperature;BME280_humidity;BME280_pressure;Samples;Min_cycle;Max_cycle;Signal;HPM_P1;HPM_P2
2024/02/28 00:00:34;;;;;;;16.02;11.32;;;4.00;99.90;;;3.22;100.00;101923.56;4189019;28;20028;-74
2024/02/28 00:02:35;;;;;;;21.63;12.32;;;4.10;99.90;;;3.22;100.00;101927.00;4189924;28;20040;-74
2024/02/28 00:04:36;;;;;;;20.13;12.35;;;4.00;99.90;;;3.25;100.00;101933.81;4193394;28;20025;-74
2024/02/28 00:06:38;;;;;;;17.40;11.82;;;4.10;99.90;;;3.26;100.00;101928.53;4188366;28;20029;-74
2024/02/28 00:08:39;;;;;;;16.60;10.68;;;4.10;99.90;;;3.31;100.00;101942.19;4188036;28;20082;-74
2024/02/28 00:10:39;;;;;;;17.52;11.00;;;4.10;99.90;;;3.38;100.00;101934.00;4188196;28;20037;-74
2024/02/28 00:12:40;;;;;;;17.13;11.25;;;4.20;99.90;;;3.46;100.00;101937.91;4188087;28;20028;-74
2024/02/28 00:14:41;;;;;;;15.82;11.00;;;4.20;99.90;;;3.56;100.00;101936.47;4189376;28;20025;-74
2024/02/28 00:16:43;;;;;;;17.88;10.55;;;4.30;99.90;;;3.67;100.00;101938.53;4192518;28;20021;-74
2024/02/28 00:18:44;;;;;;;14.55;9.93;;;4.40;99.90;;;3.77;100.00;101939.69;4186858;28;20028;-75
2024/02/28 00:20:45;;;;;;;15.65;10.05;;;4.50;99.90;;;3.83;100.00;101940.22;4187907;28;20509;-74
2024/02/28 00:22:46;;;;;;;16.00;10.48;;;4.60;99.90;;;3.86;100.00;101940.03;4187886;28;20419;-74
2024/02/28 00:24:47;;;;;;;16.45;10.88;;;4.60;99.90;;;3.87;100.00;101933.91;4186859;28;20075;-74
2024/02/28 00:26:48;;;;;;;15.38;10.63;;;4.70;99.90;;;3.92;100.00;101944.09;4195270;28;20055;-74
2024/02/28 00:28:49;;;;;;;16.25;12.15;;;4.70;99.90;;;3.95;100.00;101940.47;4204431;28;20025;-74
2024/02/28 00:30:50;;;;;;;14.18;10.55;;;4.70;99.90;;;3.97;100.00;101934.25;4186494;28;20018;-74
2024/02/28 00:32:50;;;;;;;15.27;10.93;;;4.70;99.90;;;3.98;100.00;101938.53;4203015;28;20070;-75
2024/02/28 00:34:51;;;;;;;19.35;12.43;;;4.80;99.90;;;3.98;100.00;101937.69;4194288;28;20032;-75
2024/02/28 00:36:52;;;;;;;17.90;12.00;;;4.80;99.90;;;4.00;100.00;101939.31;4191774;28;20029;-74
2024/02/28 00:38:53;;;;;;;16.08;10.73;;;4.80;99.90;;;4.00;100.00;101934.09;4187451;28;20021;-74
2024/02/28 00:40:54;;;;;;;14.00;10.63;;;4.80;99.90;;;4.06;100.00;101946.78;4187846;28;20025;-75
2024/02/28 00:42:55;;;;;;;19.15;12.25;;;4.80;99.90;;;4.11;100.00;101947.38;4187778;28;20032;-74
2024/02/28 00:44:56;;;;;;;17.33;12.05;;;4.90;99.90;;;4.14;100.00;101946.38;4197774;28;20100;-75
2024/02/28 00:46:56;;;;;;;15.27;11.27;;;4.90;99.90;;;4.18;100.00;101938.25;4188763;28;20430;-74
2024/02/28 00:48:57;;;;;;;15.15;10.75;;;5.00;99.90;;;4.28;100.00;101942.03;4187699;28;20078;-75
2024/02/28 00:50:58;;;;;;;17.10;10.13;;;5.10;99.90;;;4.36;100.00;101939.84;4187627;28;20037;-74
2024/02/28 00:52:59;;;;;;;15.85;10.10;;;5.20;99.90;;;4.42;100.00;101939.50;4187358;28;20462;-75
2024/02/28 00:55:00;;;;;;;15.65;10.00;;;5.20;99.90;;;4.46;100.00;101935.78;4195009;28;20446;-75
2024/02/28 00:57:00;;;;;;;15.00;10.43;;;5.20;99.90;;;4.47;100.00;101932.25;4186369;28;20036;-75
2024/02/28 00:59:01;;;;;;;13.95;10.82;;;5.30;99.90;;;4.48;100.00;101930.44;4187445;28;20029;-74
2024/02/28 01:01:02;;;;;;;13.32;10.40;;;5.30;99.90;;;4.50;100.00;101938.22;4187373;28;20082;-75
2024/02/28 01:03:04;;;;;;;12.77;9.90;;;5.30;99.90;;;4.51;100.00;101932.06;4187390;28;20029;-75
2024/02/28 01:05:05;;;;;;;17.42;10.85;;;5.30;99.90;;;4.50;100.00;101935.59;4191492;28;20041;-74
2024/02/28 01:07:06;;;;;;;16.75;11.40;;;5.30;99.90;;;4.48;100.00;101925.22;4187402;28;20021;-75
2024/02/28 01:09:07;;;;;;;14.75;11.25;;;5.30;99.90;;;4.45;100.00;101926.25;4185055;28;20052;-75
2024/02/28 01:11:08;;;;;;;20.83;13.45;;;5.30;99.90;;;4.46;100.00;101935.78;4198478;28;20044;-75
2024/02/28 01:13:08;;;;;;;18.52;13.70;;;5.30;99.90;;;4.50;100.00;101933.84;4202489;28;20493;-74
2024/02/28 01:15:09;;;;;;;20.38;13.18;;;5.30;99.90;;;4.49;100.00;101934.75;4202541;28;20025;-75
2024/02/28 01:17:10;;;;;;;17.05;11.48;;;5.30;99.90;;;4.50;100.00;101935.59;4203596;28;20460;-75
2024/02/28 01:19:11;;;;;;;11.63;8.63;;;5.30;99.90;;;4.51;100.00;101929.47;4190893;28;20047;-74
2024/02/28 01:21:12;;;;;;;11.38;8.18;;;5.40;99.90;;;4.58;100.00;101933.38;4187024;28;20033;-75
2024/02/28 01:23:13;;;;;;;13.57;8.23;;;5.40;99.90;;;4.61;100.00;101928.81;4187044;28;20033;-75
2024/02/28 01:25:14;;;;;;;15.82;9.60;;;5.40;99.90;;;4.65;100.00;101937.34;4186441;28;20097;-75
2024/02/28 01:27:15;;;;;;;16.25;11.18;;;5.50;99.90;;;4.66;100.00;101936.41;4199255;28;20021;-75
2024/02/28 01:29:15;;;;;;;18.73;11.00;;;5.50;99.90;;;4.72;100.00;101949.13;4202288;28;20504;-75
2024/02/28 01:31:16;;;;;;;16.15;10.32;;;5.50;99.90;;;4.74;100.00;101950.72;4203626;28;20021;-75
2024/02/28 01:33:17;;;;;;;15.02;9.05;;;5.50;99.90;;;4.79;100.00;101942.59;4203389;28;20081;-74
2024/02/28 01:35:18;;;;;;;15.68;9.40;;;5.60;99.90;;;4.81;100.00;101930.28;4201094;28;20083;-74
2024/02/28 01:37:19;;;;;;;13.95;9.30;;;5.60;99.90;;;4.81;100.00;101931.13;4187971;28;20029;-74
2024/02/28 01:39:19;;;;;;;15.13;9.70;;;5.70;99.90;;;4.84;100.00;101940.53;4185841;28;20047;-75
2024/02/28 01:41:20;;;;;;;11.65;9.10;;;5.60;99.90;;;4.84;100.00;101930.09;4193934;28;20055;-75
2024/02/28 01:43:21;;;;;;;12.70;8.73;;;5.70;99.90;;;4.91;100.00;101931.41;4202185;28;20035;-75
2024/02/28 01:45:22;;;;;;;12.40;9.00;;;5.70;99.90;;;4.93;100.00;101930.41;4208628;28;20405;-75
2024/02/28 01:47:23;;;;;;;12.50;8.55;;;5.70;99.90;;;4.99;100.00;101923.94;4187083;28;20024;-75
2024/02/28 01:49:25;;;;;;;11.32;8.63;;;5.80;99.90;;;5.03;100.00;101931.53;4185679;28;20029;-75
2024/02/28 01:51:27;;;;;;;14.18;9.82;;;5.80;99.90;;;5.06;100.00;101919.19;4196578;28;20111;-74
2024/02/28 01:53:28;;;;;;;15.15;9.55;;;5.90;99.90;;;5.09;100.00;101926.88;4204030;28;20432;-76
2024/02/28 01:55:29;;;;;;;15.10;9.68;;;5.90;99.90;;;5.11;100.00;101923.22;4191667;28;20032;-74
2024/02/28 01:57:30;;;;;;;15.63;9.68;;;5.90;99.90;;;5.18;100.00;101921.09;4187657;28;20037;-74
2024/02/28 01:59:32;;;;;;;14.80;9.38;;;6.00;99.90;;;5.19;100.00;101918.38;4196270;28;20078;-75
2024/02/28 02:01:33;;;;;;;13.18;8.48;;;6.00;99.90;;;5.22;100.00;101918.22;4185248;28;20071;-75
2024/02/28 02:03:34;;;;;;;14.00;8.95;;;6.00;99.90;;;5.24;100.00;101918.94;4189504;28;20067;-75
2024/02/28 02:05:35;;;;;;;12.20;8.63;;;6.10;99.90;;;5.28;100.00;101917.84;4195518;28;20025;-75
2024/02/28 02:07:36;;;;;;;12.63;8.20;;;6.10;99.90;;;5.28;100.00;101919.59;4186077;28;20025;-74
2024/02/28 02:09:37;;;;;;;12.48;8.63;;;6.10;99.90;;;5.31;100.00;101919.41;4185063;28;20052;-75
2024/02/28 02:11:39;;;;;;;11.35;8.40;;;6.10;99.90;;;5.29;100.00;101913.41;4186531;28;20029;-75
2024/02/28 02:13:53;;;;;;;12.13;8.20;;;6.10;99.90;;;5.32;100.00;101911.47;4201571;28;20052;-74
2024/02/28 02:15:54;;;;;;;11.38;8.02;;;6.10;99.90;;;5.34;100.00;101917.47;4187723;28;20061;-75
2024/02/28 02:17:54;;;;;;;13.00;9.00;;;6.10;99.90;;;5.34;100.00;101914.84;4186139;28;20040;-75
2024/02/28 02:19:55;;;;;;;14.65;9.23;;;6.20;99.90;;;5.40;100.00;101922.31;4168383;28;20479;-75
2024/02/28 02:22:03;;;;;;;12.32;7.65;;;6.20;99.90;;;5.43;100.00;101916.91;4186338;28;20082;-75
2024/02/28 02:24:04;;;;;;;15.02;9.45;;;6.20;99.90;;;5.44;100.00;101915.94;4186128;28;20082;-75
2024/02/28 02:26:05;;;;;;;11.45;8.05;;;6.30;99.90;;;5.49;100.00;101913.06;4197724;28;20025;-75
2024/02/28 02:28:06;;;;;;;15.43;8.38;;;6.30;99.90;;;5.45;100.00;101907.16;4184727;28;20025;-75
2024/02/28 02:30:07;;;;;;;12.88;7.82;;;6.30;99.90;;;5.49;100.00;101913.91;4192527;28;20029;-74
2024/02/28 02:32:08;;;;;;;11.20;7.55;;;6.30;99.90;;;5.56;100.00;101920.41;4186200;28;20096;-75
2024/02/28 02:34:09;;;;;;;10.85;6.60;;;6.40;99.90;;;5.59;100.00;101917.63;4195734;28;20041;-75
2024/02/28 02:36:10;;;;;;;11.32;6.78;;;6.40;99.90;;;5.65;100.00;101912.91;4196181;28;20040;-74
2024/02/28 02:38:10;;;;;;;10.73;6.90;;;6.40;99.90;;;5.67;100.00;101908.44;4185766;28;20511;-75
2024/02/28 02:40:12;;;;;;;9.60;6.13;;;6.40;99.90;;;5.69;100.00;101906.56;4185920;28;20036;-74
2024/02/28 02:42:17;;;;;;;9.13;6.72;;;6.50;99.90;;;5.72;100.00;101914.22;4197026;28;20491;-75
2024/02/28 02:44:18;;;;;;;11.57;7.07;;;6.50;99.90;;;5.72;100.00;101907.22;4190049;28;20029;-75
2024/02/28 02:46:19;;;;;;;9.95;6.60;;;6.50;99.90;;;5.78;100.00;101911.22;4193576;28;20037;-75
2024/02/28 02:48:20;;;;;;;11.15;7.15;;;6.50;99.90;;;5.75;100.00;101908.81;4185721;28;20464;-75
2024/02/28 02:50:20;;;;;;;9.95;6.93;;;6.50;99.90;;;5.72;100.00;101906.38;4200867;28;20396;-75
2024/02/28 02:52:21;;;;;;;10.35;6.65;;;6.50;99.90;;;5.76;100.00;101905.25;4184277;28;20404;-75
2024/02/28 02:54:22;;;;;;;8.10;6.47;;;6.50;99.90;;;5.76;100.00;101906.09;4186417;28;20025;-75
2024/02/28 02:56:23;;;;;;;9.52;7.05;;;6.50;99.90;;;5.81;100.00;101908.41;4200890;28;20021;-75
2024/02/28 02:58:24;;;;;;;12.95;6.88;;;6.60;99.90;;;5.81;100.00;101900.56;4185550;28;20090;-75
2024/02/28 03:00:25;;;;;;;10.05;6.80;;;6.60;99.90;;;5.81;100.00;101898.78;4185632;28;20025;-75
2024/02/28 03:02:25;;;;;;;10.85;7.00;;;6.60;99.90;;;5.83;100.00;101896.06;4184434;28;20029;-75
2024/02/28 03:04:26;;;;;;;13.25;7.65;;;6.60;99.90;;;5.85;100.00;101894.22;4186501;28;20021;-75
2024/02/28 03:06:27;;;;;;;10.95;6.88;;;6.60;99.90;;;5.86;100.00;101901.97;4187554;28;20390;-75
2024/02/28 03:08:28;;;;;;;14.43;7.43;;;6.60;99.90;;;5.88;100.00;101894.88;4185344;28;20071;-74
2024/02/28 03:10:29;;;;;;;10.98;7.22;;;6.60;99.90;;;5.89;100.00;101896.53;4185447;28;20029;-75
2024/02/28 03:12:30;;;;;;;15.50;7.45;;;6.70;99.90;;;5.94;100.00;101888.41;4185452;28;20024;-75
2024/02/28 03:14:31;;;;;;;10.38;7.22;;;6.70;99.90;;;5.97;100.00;101893.47;4186030;28;20077;-75
2024/02/28 03:16:31;;;;;;;12.50;7.95;;;6.70;99.90;;;5.98;100.00;101882.03;4185431;28;20036;-75
2024/02/28 03:18:32;;;;;;;10.82;6.88;;;6.80;99.90;;;6.02;100.00;101897.47;4200737;28;20039;-75
2024/02/28 03:20:34;;;;;;;14.40;7.85;;;6.80;99.90;;;6.04;100.00;101885.09;4185376;28;20028;-75
2024/02/28 03:22:35;;;;;;;9.77;6.95;;;6.80;99.90;;;6.05;100.00;101886.78;4183765;28;20033;-75
2024/02/28 03:24:35;;;;;;;13.60;7.20;;;6.80;99.90;;;6.03;100.00;101870.31;4187250;28;20060;-75
2024/02/28 03:26:36;;;;;;;12.18;7.30;;;6.80;99.90;;;6.08;100.00;101870.88;4193723;28;20021;-75
2024/02/28 03:28:37;;;;;;;10.43;7.75;;;6.90;99.90;;;6.13;100.00;101878.41;4195527;28;20058;-75
2024/02/28 03:30:38;;;;;;;9.63;6.80;;;6.90;99.90;;;6.14;100.00;101885.34;4201931;28;20476;-75
2024/02/28 03:32:39;;;;;;;12.30;6.93;;;6.90;99.90;;;6.16;100.00;101890.47;4201443;28;20381;-74
2024/02/28 03:34:40;;;;;;;11.32;7.07;;;6.90;99.90;;;6.18;100.00;101888.59;4195613;28;20404;-75
2024/02/28 03:36:40;;;;;;;12.38;7.40;;;6.90;99.90;;;6.20;100.00;101891.97;4191576;28;20029;-75
2024/02/28 03:38:41;;;;;;;10.38;7.25;;;7.00;99.90;;;6.22;100.00;101892.69;4184924;28;20033;-75
2024/02/28 03:40:42;;;;;;;13.35;8.23;;;7.00;99.90;;;6.24;100.00;101886.44;4184090;28;20476;-75
2024/02/28 03:42:43;;;;;;;11.98;7.22;;;7.00;99.90;;;6.24;100.00;101875.97;4185180;28;20071;-75
2024/02/28 03:44:44;;;;;;;10.00;7.20;;;7.00;99.90;;;6.30;100.00;101893.06;4187877;28;20040;-75
2024/02/28 03:46:45;;;;;;;10.60;7.20;;;7.10;99.90;;;6.29;100.00;101886.97;4188682;28;20061;-75
2024/02/28 03:48:46;;;;;;;10.57;7.28;;;7.10;99.90;;;6.29;100.00;101884.34;4185119;28;20033;-75
2024/02/28 03:50:47;;;;;;;11.98;7.50;;;7.10;99.90;;;6.33;100.00;101890.22;4183941;28;20025;-75
2024/02/28 03:52:47;;;;;;;12.80;7.57;;;7.10;99.90;;;6.31;100.00;101895.56;4184888;28;20029;-75
2024/02/28 03:54:48;;;;;;;11.85;7.30;;;7.10;99.90;;;6.34;100.00;101897.13;4187887;28;20054;-75
2024/02/28 03:56:49;;;;;;;10.45;7.38;;;7.10;99.90;;;6.34;100.00;101894.50;4197719;28;20028;-75
2024/02/28 03:58:51;;;;;;;9.77;7.32;;;7.10;99.90;;;6.33;100.00;101891.03;4201690;28;20012;-74
2024/02/28 04:00:51;;;;;;;13.82;7.80;;;7.20;99.90;;;6.37;100.00;101900.41;4200604;28;20024;-75
2024/02/28 04:02:52;;;;;;;12.60;7.97;;;7.20;99.90;;;6.39;100.00;101897.69;4201550;28;20071;-75
2024/02/28 04:04:53;;;;;;;11.98;7.70;;;7.20;99.90;;;6.35;100.00;101899.66;4199196;28;20047;-75
2024/02/28 04:06:54;;;;;;;11.88;8.30;;;7.10;99.90;;;6.35;100.00;101894.44;4183794;28;20025;-75
2024/02/28 04:08:55;;;;;;;16.88;7.90;;;7.10;99.90;;;6.31;100.00;101885.06;4184803;28;20029;-75
2024/02/28 04:10:56;;;;;;;14.50;8.27;;;7.20;99.90;;;6.34;100.00;101886.66;4183678;28;20032;-75
2024/02/28 04:12:56;;;;;;;11.50;7.72;;;7.10;99.90;;;6.34;100.00;101889.28;4198606;28;20029;-75
2024/02/28 04:14:57;;;;;;;11.18;7.60;;;7.10;99.90;;;6.31;100.00;101889.47;4200864;28;20046;-75
2024/02/28 04:16:58;;;;;;;17.23;8.82;;;7.10;99.90;;;6.29;100.00;101889.59;4193435;28;20021;-74
2024/02/28 04:18:59;;;;;;;11.88;7.65;;;7.10;99.90;;;6.30;100.00;101888.63;4184832;28;20036;-75
2024/02/28 04:21:00;;;;;;;15.18;7.60;;;7.10;99.90;;;6.28;100.00;101890.50;4183570;28;20032;-75
2024/02/28 04:23:00;;;;;;;15.45;8.38;;;7.10;99.90;;;6.28;100.00;101894.91;4184755;28;20018;-75
2024/02/28 04:25:01;;;;;;;14.85;8.32;;;7.00;99.90;;;6.29;100.00;101894.81;4189291;28;20036;-75
2024/02/28 04:27:05;;;;;;;15.65;8.52;;;7.00;99.90;;;6.27;100.00;101899.34;4200932;28;20036;-75
2024/02/28 04:29:07;;;;;;;15.77;8.77;;;7.00;99.90;;;6.30;100.00;101895.66;4201258;28;20021;-75
2024/02/28 04:31:09;;;;;;;14.88;8.85;;;7.10;99.90;;;6.29;100.00;101893.97;4196996;28;20044;-75
2024/02/28 04:33:10;;;;;;;15.25;7.75;;;7.10;99.90;;;6.34;100.00;101900.59;4187027;28;20021;-75
2024/02/28 04:35:11;;;;;;;13.98;8.77;;;7.10;99.90;;;6.35;100.00;101899.66;4200468;28;20031;-75
2024/02/28 04:37:11;;;;;;;13.40;8.50;;;7.10;99.90;;;6.38;100.00;101893.38;4186842;28;20492;-75
2024/02/28 04:39:12;;;;;;;14.55;8.50;;;7.10;99.90;;;6.41;100.00;101899.25;4193205;28;20025;-75
2024/02/28 04:41:13;;;;;;;12.55;9.27;;;7.20;99.90;;;6.43;100.00;101897.38;4184891;28;20033;-75
2024/02/28 04:43:14;;;;;;;14.15;7.90;;;7.20;99.90;;;6.43;100.00;101889.50;4184669;28;20056;-75
2024/02/28 04:45:15;;;;;;;14.63;8.02;;;7.20;99.90;;;6.43;100.00;101881.66;4193002;28;20029;-75
2024/02/28 04:47:16;;;;;;;13.57;8.45;;;7.20;99.90;;;6.49;100.00;101885.63;4187926;28;20060;-75
2024/02/28 04:49:17;;;;;;;15.57;9.27;;;7.30;99.90;;;6.55;100.00;101885.22;4187688;28;20520;-75
2024/02/28 04:51:18;;;;;;;17.67;8.77;;;7.30;99.90;;;6.54;100.00;101886.19;4202847;28;20396;-75
2024/02/28 04:53:18;;;;;;;10.70;8.18;;;7.30;99.90;;;6.57;100.00;101892.03;4187459;28;20551;-75
2024/02/28 04:55:19;;;;;;;18.25;10.32;;;7.40;99.90;;;6.60;100.00;101893.66;4189911;28;20029;-75
2024/02/28 04:57:20;;;;;;;16.50;9.80;;;7.40;99.90;;;6.62;100.00;101897.00;4187754;28;20021;-75
2024/02/28 04:59:21;;;;;;;11.48;8.52;;;7.40;99.90;;;6.64;100.00;101887.22;4187591;28;20029;-75
2024/02/28 05:01:22;;;;;;;17.55;8.88;;;7.40;99.90;;;6.69;100.00;101885.97;4187277;28;20032;-75
2024/02/28 05:03:24;;;;;;;15.75;8.65;;;7.40;99.90;;;6.72;100.00;101884.13;4187330;28;20033;-75
2024/02/28 05:05:25;;;;;;;14.60;8.73;;;7.40;99.90;;;6.72;100.00;101881.50;4186957;28;20021;-75
2024/02/28 05:07:26;;;;;;;12.88;8.32;;;7.50;99.90;;;6.73;100.00;101878.75;4185851;28;20031;-75
2024/02/28 05:09:27;;;;;;;16.77;8.82;;;7.50;99.90;;;6.73;100.00;101876.13;4187344;28;20025;-75
2024/02/28 05:11:28;;;;;;;16.92;8.93;;;7.50;99.90;;;6.75;100.00;101876.03;4187234;28;20032;-75
2024/02/28 05:13:28;;;;;;;17.08;9.30;;;7.50;99.90;;;6.77;100.00;101875.00;4202553;28;20035;-75
2024/02/28 05:15:29;;;;;;;15.65;10.30;;;7.50;99.90;;;6.79;100.00;101872.25;4194847;28;20040;-75
2024/02/28 05:17:30;;;;;;;12.63;9.05;;;7.50;99.90;;;6.77;100.00;101871.53;4191049;28;20448;-75
2024/02/28 05:19:31;;;;;;;18.60;10.23;;;7.60;99.90;;;6.79;100.00;101867.00;4187128;28;20029;-75
2024/02/28 05:21:39;;;;;;;15.57;10.55;;;7.60;99.90;;;6.83;100.00;101863.25;4185936;28;20021;-76
2024/02/28 05:23:40;;;;;;;14.45;9.43;;;7.60;99.90;;;6.84;100.00;101871.00;4187006;28;20404;-76
2024/02/28 05:25:41;;;;;;;17.67;8.80;;;7.60;99.90;;;6.86;100.00;101865.66;4185429;28;20037;-75
2024/02/28 05:27:42;;;;;;;16.33;10.07;;;7.60;99.90;;;6.87;100.00;101873.41;4201857;28;20020;-76
2024/02/28 05:29:43;;;;;;;20.70;9.85;;;7.70;99.90;;;6.90;100.00;101869.75;4198088;28;20029;-76
2024/02/28 05:31:44;;;;;;;12.18;8.32;;;7.70;99.90;;;6.95;100.00;101867.66;4187048;28;20025;-75
2024/02/28 05:33:44;;;;;;;13.25;8.63;;;7.70;99.90;;;6.95;100.00;101867.66;4195382;28;20542;-75
2024/02/28 05:35:45;;;;;;;18.60;10.23;;;7.70;99.90;;;6.97;100.00;101866.59;4195327;28;20373;-75
2024/02/28 05:37:46;;;;;;;19.73;11.98;;;7.70;99.90;;;6.98;100.00;101859.56;4201982;28;20032;-75
2024/02/28 05:39:47;;;;;;;18.60;9.73;;;7.70;99.90;;;6.95;100.00;101862.41;4186962;28;20120;-75
2024/02/28 05:41:48;;;;;;;16.52;10.32;;;7.70;99.90;;;6.95;100.00;101865.03;4186823;28;20036;-75
2024/02/28 05:43:49;;;;;;;18.02;10.57;;;7.70;99.90;;;6.95;100.00;101876.38;4186690;28;20031;-76
2024/02/28 05:45:50;;;;;;;17.25;9.27;;;7.70;99.90;;;6.99;100.00;101885.69;4191719;28;20055;-76
2024/02/28 05:47:51;;;;;;;14.95;9.40;;;7.70;99.90;;;6.97;100.00;101879.72;4186859;28;20029;-75
2024/02/28 05:49:52;;;;;;;21.63;10.10;;;7.70;99.90;;;7.01;100.00;101878.56;4194309;28;20025;-76
2024/02/28 05:51:53;;;;;;;18.08;10.50;;;7.70;99.90;;;7.03;100.00;101875.81;4187339;28;20071;-76
2024/02/28 05:53:54;;;;;;;19.90;10.05;;;7.80;99.90;;;7.04;100.00;101877.50;4185275;28;20102;-76
2024/02/28 05:55:56;;;;;;;23.15;10.65;;;7.80;99.90;;;7.07;100.00;101877.31;4201528;28;20032;-75
2024/02/28 05:57:57;;;;;;;19.95;11.35;;;7.80;99.90;;;7.04;100.00;101867.88;4197867;28;20544;-76
2024/02/28 05:59:58;;;;;;;17.40;10.07;;;7.80;99.90;;;7.08;100.00;101876.34;4201918;28;20037;-76
2024/02/28 06:01:59;;;;;;;18.00;11.25;;;7.80;99.90;;;7.09;100.00;101875.41;4203108;28;20032;-76
2024/02/28 06:04:00;;;;;;;21.45;12.45;;;7.80;99.90;;;7.12;100.00;101880.44;4201889;28;20058;-76
2024/02/28 06:06:04;;;;;;;18.27;10.38;;;7.80;99.90;;;7.11;100.00;101878.75;4191863;28;20036;-75
2024/02/28 06:08:06;;;;;;;27.35;12.73;;;7.80;99.90;;;7.12;100.00;101876.03;4186170;28;20089;-75
2024/02/28 06:10:08;;;;;;;20.92;12.35;;;7.80;99.90;;;7.15;100.00;101874.97;4168666;28;20037;-76
2024/02/28 06:12:08;;;;;;;19.00;11.32;;;7.90;99.90;;;7.19;100.00;101876.47;4186302;28;20070;-76
2024/02/28 06:14:09;;;;;;;17.33;9.75;;;7.90;99.90;;;7.19;100.00;101879.09;4186311;28;20024;-76
2024/02/28 06:16:18;;;;;;;16.45;9.43;;;7.90;99.90;;;7.21;100.00;101871.94;4197435;28;20033;-76
2024/02/28 06:18:19;;;;;;;16.88;10.48;;;8.00;99.90;;;7.22;100.00;101865.75;4185244;28;20031;-75
2024/02/28 06:20:20;;;;;;;19.75;11.70;;;8.00;99.90;;;7.23;100.00;101857.75;4186323;28;20025;-75
2024/02/28 06:22:21;;;;;;;23.85;12.02;;;8.00;99.90;;;7.27;100.00;101866.25;4184887;28;20029;-75
2024/02/28 06:24:21;;;;;;;22.25;11.13;;;8.00;99.90;;;7.26;100.00;101861.94;4186257;28;20033;-76
2024/02/28 06:26:23;;;;;;;18.27;10.38;;;8.00;99.90;;;7.29;100.00;101856.47;4194834;28;20025;-76
2024/02/28 06:28:24;;;;;;;17.77;11.05;;;8.00;99.90;;;7.27;100.00;101853.13;4194472;28;20048;-76
2024/02/28 06:30:25;;;;;;;17.52;11.50;;;8.00;99.90;;;7.31;100.00;101851.97;4201583;28;20103;-77
2024/02/28 06:32:25;;;;;;;21.30;11.35;;;8.00;99.90;;;7.32;100.00;101860.69;4202361;28;20027;-76
2024/02/28 06:34:26;;;;;;;19.98;11.80;;;8.10;99.90;;;7.32;100.00;101855.44;4197564;28;20500;-76
2024/02/28 06:36:27;;;;;;;22.33;11.45;;;8.00;99.90;;;7.30;100.00;101858.16;4192196;28;20032;-76
2024/02/28 06:38:28;;;;;;;15.90;8.95;;;8.00;99.90;;;7.32;100.00;101858.88;4189343;28;20095;-76
2024/02/28 06:40:29;;;;;;;18.13;10.45;;;8.00;99.90;;;7.35;100.00;101865.72;4191543;28;20050;-76
2024/02/28 06:42:30;;;;;;;19.92;10.75;;;8.00;99.90;;;7.33;100.00;101863.19;4185924;28;20037;-76
2024/02/28 06:44:31;;;;;;;18.33;11.07;;;8.10;99.90;;;7.36;100.00;101864.75;4185844;28;20036;-76
2024/02/28 06:46:32;;;;;;;20.35;11.70;;;8.10;99.90;;;7.35;100.00;101860.47;4189531;28;20029;-76
2024/02/28 06:48:33;;;;;;;20.30;11.55;;;8.10;99.90;;;7.34;100.00;101858.78;4185824;28;20021;-76
2024/02/28 06:50:33;;;;;;;26.48;12.60;;;8.10;99.90;;;7.37;100.00;101859.44;4185842;28;20021;-76
2024/02/28 06:52:34;;;;;;;20.17;11.10;;;8.10;99.90;;;7.37;100.00;101869.94;4184355;28;20025;-76
2024/02/28 06:54:35;;;;;;;21.38;11.57;;;8.10;99.90;;;7.40;100.00;101869.72;4185845;28;20017;-76
2024/02/28 06:56:36;;;;;;;16.52;10.23;;;8.20;99.90;;;7.43;100.00;101879.16;4186709;28;20404;-76
2024/02/28 06:58:37;;;;;;;22.25;11.80;;;8.10;99.90;;;7.45;100.00;101872.84;4185695;28;20029;-76
2024/02/28 07:00:38;;;;;;;20.42;11.95;;;8.20;99.90;;;7.45;100.00;101872.84;4185671;28;20033;-76
2024/02/28 07:02:39;;;;;;;20.05;12.10;;;8.20;99.90;;;7.47;100.00;101878.81;4185619;28;20031;-76
2024/02/28 07:04:42;;;;;;;25.27;14.75;;;8.20;99.90;;;7.46;100.00;101873.69;4185444;28;20033;-77
2024/02/28 07:06:42;;;;;;;22.58;12.98;;;8.20;99.90;;;7.52;100.00;101881.97;4195708;28;20463;-76
2024/02/28 07:08:43;;;;;;;20.75;11.95;;;8.20;99.90;;;7.53;100.00;101874.91;4185345;28;20056;-76
2024/02/28 07:10:47;;;;;;;34.53;15.80;;;8.20;99.90;;;7.55;100.00;101883.53;4184331;28;20032;-77
2024/02/28 07:12:48;;;;;;;25.67;15.05;;;8.30;99.90;;;7.58;100.00;101883.31;4198284;28;20024;-76
2024/02/28 07:14:49;;;;;;;22.77;13.88;;;8.30;99.90;;;7.61;100.00;101885.72;4198189;28;20033;-76
2024/02/28 07:16:51;;;;;;;25.02;14.90;;;8.30;99.90;;;7.60;100.00;101884.03;4194797;28;20033;-76
2024/02/28 07:18:52;;;;;;;18.35;13.70;;;8.30;99.90;;;7.65;100.00;101881.91;4184232;28;20036;-75
2024/02/28 07:20:53;;;;;;;23.70;13.30;;;8.40;99.90;;;7.67;100.00;101883.50;4185242;28;20033;-75
2024/02/28 07:22:54;;;;;;;24.10;13.55;;;8.40;99.90;;;7.71;100.00;101890.19;4189327;28;20024;-75
2024/02/28 07:24:55;;;;;;;23.73;14.35;;;8.40;99.90;;;7.74;100.00;101883.88;4195402;28;20036;-76
2024/02/28 07:26:57;;;;;;;21.73;13.25;;;8.50;99.90;;;7.83;100.00;101891.09;4200685;28;20028;-76
2024/02/28 07:28:57;;;;;;;23.48;13.40;;;8.50;99.90;;;7.90;100.00;101894.13;4202016;28;20032;-76
2024/02/28 07:30:58;;;;;;;19.85;12.43;;;8.60;99.90;;;7.92;100.00;101879.09;4201721;28;20439;-76
2024/02/28 07:32:59;;;;;;;23.77;14.00;;;8.60;99.90;;;7.99;100.00;101888.22;4200688;28;20036;-76
2024/02/28 07:35:01;;;;;;;19.63;13.80;;;8.70;99.90;;;8.05;100.00;101887.78;4209405;28;20036;-76
2024/02/28 07:37:03;;;;;;;22.77;13.48;;;8.70;99.90;;;8.08;100.00;101884.91;4189359;28;20480;-76
2024/02/28 07:39:05;;;;;;;21.33;13.65;;;8.80;99.90;;;8.14;100.00;101887.09;4185061;28;20032;-76
2024/02/28 07:41:06;;;;;;;22.63;13.15;;;8.80;99.90;;;8.16;100.00;101878.16;4183985;28;20025;-76
2024/02/28 07:43:06;;;;;;;19.92;12.48;;;8.80;99.90;;;8.19;100.00;101884.97;4191778;28;20106;-77
2024/02/28 07:45:08;;;;;;;20.67;12.68;;;8.90;99.90;;;8.20;100.00;101884.88;4189932;28;20029;-76
2024/02/28 07:47:09;;;;;;;21.00;13.60;;;8.90;99.90;;;8.22;100.00;101885.59;4186483;28;20170;-76
2024/02/28 07:49:10;;;;;;;23.48;15.02;;;8.90;99.90;;;8.28;100.00;101884.31;4183973;28;20025;-75
2024/02/28 07:51:11;;;;;;;21.58;13.90;;;9.00;99.90;;;8.28;100.00;101893.06;4183705;28;20083;-76
2024/02/28 07:53:16;;;;;;;26.85;14.38;;;9.00;99.90;;;8.32;100.00;101891.03;4200399;28;20054;-76
2024/02/28 07:55:19;;;;;;;41.58;28.27;;;9.00;99.90;;;8.44;100.00;101900.66;4200203;28;20067;-75
2024/02/28 07:57:20;;;;;;;79.90;53.25;;;9.10;99.90;;;8.52;100.00;101895.66;4184906;28;20029;-75
2024/02/28 07:59:21;;;;;;;94.22;62.00;;;9.20;99.90;;;8.62;100.00;101894.00;4200281;28;20024;-75
2024/02/28 08:01:22;;;;;;;59.75;43.58;;;9.30;99.90;;;8.71;100.00;101893.31;4185138;28;20025;-76
2024/02/28 08:03:23;;;;;;;55.90;38.53;;;9.40;99.90;;;8.74;100.00;101892.25;4185009;28;20481;-76
2024/02/28 08:05:24;;;;;;;29.35;17.35;;;9.40;99.90;;;8.77;100.00;101879.72;4189105;28;20503;-76
2024/02/28 08:07:25;;;;;;;25.20;13.90;;;9.40;99.90;;;8.79;100.00;101896.19;4193099;28;20025;-76
2024/02/28 08:09:26;;;;;;;32.72;18.85;;;9.50;99.90;;;8.79;100.00;101900.63;4184951;28;20025;-78
2024/02/28 08:11:27;;;;;;;26.75;15.55;;;9.50;99.90;;;8.80;100.00;101897.03;4183521;28;20021;-77
2024/02/28 08:13:28;;;;;;;28.10;20.45;;;9.50;99.90;;;8.82;100.00;101895.97;4184992;28;20099;-76
2024/02/28 08:15:29;;;;;;;43.63;27.40;;;9.50;99.90;;;8.83;100.00;101896.81;4189583;28;20024;-77
2024/02/28 08:17:30;;;;;;;39.47;26.23;;;9.50;99.90;;;8.80;100.00;101907.56;4190706;28;20029;-76
2024/02/28 08:19:31;;;;;;;31.92;22.42;;;9.50;99.90;;;8.80;100.00;101905.78;4180495;28;20032;-76
2024/02/28 08:21:31;;;;;;;28.73;19.70;;;9.50;99.90;;;8.81;100.00;101907.44;4188079;28;20021;-75